Weather at Bilbao Airport

Public forecast

Using degrees Celsius for public forecast. Weather courtesy of forecast.io.

Current aviation weather report (METAR) for Bilbao Airport

Retrieved 2020/11/25 04:30 UTC (3 minutes ago):

LEBB 250430Z 14011KT 100V170 CAVOK 12/05 Q1013 NOSIG

Aviation forecast (TAF) for Bilbao Airport

Retrieved 2020-11-25 00:27 UTC (4 hours ago):

TAF LEBB 242300Z 2500/2524 12009KT CAVOK TX15/2514Z TN07/2522Z